Time;durP1;ratioP1;P1;durP2;ratioP2;P2;SDS_P1;SDS_P2;PMS_P1;PMS_P2;Temp;Humidity;BMP_temperature;BMP_pressure;BME280_temperature;BME280_humidity;BME280_pressure;Samples;Min_cycle;Max_cycle;Signal;HPM_P1;HPM_P2
2021/03/30 00:02:04;;;;;;;2.03;1.23;;;8.80;99.90;;;;;;4978254;28;20046;-66
2021/03/30 00:04:30;;;;;;;5.53;1.60;;;8.90;99.90;;;;;;4983119;28;20049;-71
2021/03/30 00:06:57;;;;;;;2.35;1.70;;;8.90;99.90;;;;;;4980308;28;20039;-64
2021/03/30 00:09:23;;;;;;;1.70;1.60;;;8.90;99.90;;;;;;4981755;28;20108;-64
2021/03/30 00:11:50;;;;;;;2.03;1.63;;;8.90;99.90;;;;;;4981719;28;20385;-67
2021/03/30 00:14:17;;;;;;;3.67;1.40;;;8.90;99.90;;;;;;4978503;28;20042;-67
2021/03/30 00:16:43;;;;;;;3.42;1.50;;;8.80;99.90;;;;;;4984461;28;20050;-68
2021/03/30 00:19:10;;;;;;;6.30;3.22;;;8.80;99.90;;;;;;4979750;28;20468;-69
2021/03/30 00:21:36;;;;;;;2.95;1.23;;;8.80;99.90;;;;;;4982160;28;20069;-63
2021/03/30 00:24:05;;;;;;;1.65;1.35;;;8.80;99.90;;;;;;4979819;28;20057;-63
2021/03/30 00:26:35;;;;;;;2.70;1.77;;;8.80;99.90;;;;;;4987252;28;20480;-66
2021/03/30 00:29:03;;;;;;;2.80;1.48;;;8.70;99.90;;;;;;4982157;28;20050;-71
2021/03/30 00:31:30;;;;;;;4.35;2.38;;;8.70;99.90;;;;;;4998218;28;20150;-68
2021/03/30 00:33:57;;;;;;;1.55;1.20;;;8.60;99.90;;;;;;4981282;28;20045;-71
2021/03/30 00:36:23;;;;;;;2.92;1.42;;;8.60;99.90;;;;;;4983171;28;20050;-68
2021/03/30 00:38:50;;;;;;;2.13;1.40;;;8.60;99.90;;;;;;4979234;28;20188;-67
2021/03/30 00:41:16;;;;;;;3.20;1.85;;;8.60;99.90;;;;;;4981160;28;20046;-71
2021/03/30 00:43:43;;;;;;;5.68;2.00;;;8.60;99.90;;;;;;4978410;28;20061;-66
2021/03/30 00:46:14;;;;;;;4.75;1.92;;;8.60;99.90;;;;;;4972371;28;20530;-65
2021/03/30 00:48:41;;;;;;;4.90;1.83;;;8.50;99.90;;;;;;4980802;28;20042;-72
2021/03/30 00:51:08;;;;;;;5.70;1.75;;;8.50;99.90;;;;;;4981575;28;20317;-67
2021/03/30 00:53:53;;;;;;;4.15;1.40;;;8.50;99.90;;;;;;4981313;28;20202;-70
2021/03/30 00:56:41;;;;;;;3.55;1.42;;;8.50;99.90;;;;;;4981428;28;20134;-66
2021/03/30 00:59:07;;;;;;;3.80;1.80;;;8.50;99.90;;;;;;4977138;28;20558;-64
2021/03/30 01:01:34;;;;;;;6.20;1.58;;;8.40;99.90;;;;;;4980045;28;20050;-71
2021/03/30 01:04:01;;;;;;;2.15;1.67;;;8.40;99.90;;;;;;4977088;28;20066;-66
2021/03/30 01:06:28;;;;;;;2.33;1.58;;;8.40;99.90;;;;;;4982400;28;20066;-67
2021/03/30 01:09:16;;;;;;;2.53;1.85;;;8.40;99.90;;;;;;4979908;28;20524;-64
2021/03/30 01:12:11;;;;;;;6.55;2.75;;;8.40;99.90;;;;;;4981170;28;20062;-74
2021/03/30 01:15:04;;;;;;;3.15;1.98;;;8.30;99.90;;;;;;4979155;28;20054;-73
2021/03/30 01:17:47;;;;;;;3.95;1.73;;;8.30;99.90;;;;;;4980215;28;20042;-63
2021/03/30 01:20:51;;;;;;;3.00;1.52;;;8.30;99.90;;;;;;4979710;28;20054;-72
2021/03/30 01:23:44;;;;;;;3.25;2.00;;;8.30;99.90;;;;;;4978380;28;20054;-66
2021/03/30 01:26:20;;;;;;;3.55;1.88;;;8.30;99.90;;;;;;4980499;28;20436;-65
2021/03/30 01:29:12;;;;;;;3.15;1.88;;;8.30;99.90;;;;;;4980567;28;20112;-66
2021/03/30 01:31:41;;;;;;;1.85;1.60;;;8.20;99.90;;;;;;4977983;28;20058;-62
2021/03/30 01:34:10;;;;;;;4.15;2.47;;;8.20;99.90;;;;;;4978255;28;20917;-65
2021/03/30 01:36:40;;;;;;;1.60;1.50;;;8.20;99.90;;;;;;4981377;28;20054;-67
2021/03/30 01:39:13;;;;;;;3.55;1.85;;;8.20;99.90;;;;;;4978009;28;20066;-67
2021/03/30 01:41:46;;;;;;;5.28;2.20;;;8.20;99.90;;;;;;4992481;28;20054;-63
2021/03/30 01:44:14;;;;;;;4.20;1.70;;;8.20;99.90;;;;;;4977127;28;20060;-62
2021/03/30 01:46:42;;;;;;;2.28;1.83;;;8.20;99.90;;;;;;4982814;28;20074;-67
2021/03/30 01:49:11;;;;;;;6.03;1.65;;;8.20;99.90;;;;;;4979560;28;20050;-69
2021/03/30 01:51:38;;;;;;;3.05;2.15;;;8.20;99.90;;;;;;4978312;28;20061;-66
2021/03/30 01:54:06;;;;;;;4.18;2.63;;;8.20;99.90;;;;;;4976140;28;20069;-65
2021/03/30 01:56:33;;;;;;;2.85;1.80;;;8.10;99.90;;;;;;4977972;28;20046;-63
2021/03/30 01:59:02;;;;;;;3.78;2.08;;;8.10;99.90;;;;;;4980962;28;20451;-64
2021/03/30 02:01:30;;;;;;;2.08;1.77;;;8.10;99.90;;;;;;4979091;28;20089;-63
2021/03/30 02:03:58;;;;;;;3.70;2.13;;;8.10;99.90;;;;;;4981201;28;20121;-63
2021/03/30 02:06:28;;;;;;;2.95;1.33;;;8.10;99.90;;;;;;4980409;28;20050;-73
2021/03/30 02:08:59;;;;;;;3.40;1.70;;;8.10;99.90;;;;;;4979863;28;20058;-64
2021/03/30 02:11:32;;;;;;;6.38;2.53;;;8.10;99.90;;;;;;4981192;28;20050;-65
2021/03/30 02:13:59;;;;;;;2.95;1.90;;;8.10;99.90;;;;;;4979858;28;20064;-67
2021/03/30 02:16:34;;;;;;;7.57;1.67;;;8.00;99.90;;;;;;4977132;28;20551;-70
2021/03/30 02:19:11;;;;;;;4.57;3.15;;;7.90;99.90;;;;;;4979809;28;20046;-63
2021/03/30 02:21:47;;;;;;;7.50;2.30;;;7.90;99.90;;;;;;4980533;28;20245;-68
2021/03/30 02:24:14;;;;;;;2.55;2.05;;;7.80;99.90;;;;;;4981055;28;20042;-68
2021/03/30 02:26:44;;;;;;;2.35;1.85;;;7.80;99.90;;;;;;4982154;28;20472;-63
2021/03/30 02:29:16;;;;;;;5.55;2.58;;;7.80;99.90;;;;;;4982356;28;20418;-70
2021/03/30 02:31:43;;;;;;;5.45;2.10;;;7.70;99.90;;;;;;4984352;28;20109;-67
2021/03/30 02:34:11;;;;;;;8.13;2.70;;;7.70;99.90;;;;;;4984191;28;20050;-62
2021/03/30 02:36:39;;;;;;;4.32;2.08;;;7.70;99.90;;;;;;4985658;28;20058;-68
2021/03/30 02:39:09;;;;;;;4.32;2.30;;;7.60;99.90;;;;;;4984305;28;20051;-68
2021/03/30 02:41:37;;;;;;;;;;;7.60;99.90;;;;;;4983726;28;20654;-68
2021/03/30 02:44:06;;;;;;;6.63;1.95;;;7.60;99.90;;;;;;4982795;28;20067;-66
2021/03/30 02:46:34;;;;;;;6.18;2.08;;;7.70;99.90;;;;;;4981631;28;20043;-63
2021/03/30 02:49:01;;;;;;;3.15;2.08;;;7.70;99.90;;;;;;4980080;28;20424;-64
2021/03/30 02:51:31;;;;;;;8.68;2.80;;;7.70;99.90;;;;;;4983450;28;20058;-62
2021/03/30 02:53:59;;;;;;;6.32;2.53;;;7.70;99.90;;;;;;4979718;28;20047;-65
2021/03/30 02:56:26;;;;;;;4.00;2.13;;;7.70;99.90;;;;;;4983398;28;20058;-73
2021/03/30 02:58:53;;;;;;;6.50;2.20;;;7.70;99.90;;;;;;4981756;28;20131;-64
2021/03/30 03:01:23;;;;;;;2.78;2.30;;;7.70;99.90;;;;;;4986777;28;20058;-69
2021/03/30 03:03:51;;;;;;;3.72;2.33;;;7.70;99.90;;;;;;4984548;28;20487;-67
2021/03/30 03:06:18;;;;;;;4.43;2.33;;;7.70;99.90;;;;;;4982421;28;20062;-66
2021/03/30 03:08:47;;;;;;;6.22;2.10;;;7.70;99.90;;;;;;4981413;28;20500;-66
2021/03/30 03:11:16;;;;;;;4.85;2.60;;;7.80;99.90;;;;;;4984595;28;20809;-68
2021/03/30 03:13:45;;;;;;;3.45;2.33;;;7.80;99.90;;;;;;4981371;28;20053;-70
2021/03/30 03:16:12;;;;;;;5.22;2.45;;;7.80;99.90;;;;;;4981412;28;20120;-64
2021/03/30 03:18:41;;;;;;;3.00;2.60;;;7.80;99.90;;;;;;4982771;28;20053;-65
2021/03/30 03:21:09;;;;;;;4.57;2.42;;;7.80;99.90;;;;;;4991120;28;20081;-66
2021/03/30 03:23:40;;;;;;;2.80;2.00;;;7.80;99.90;;;;;;4982648;28;20487;-67
2021/03/30 03:26:07;;;;;;;1.70;1.55;;;7.90;99.90;;;;;;4982665;28;20153;-64
2021/03/30 03:28:44;;;;;;;4.20;2.67;;;7.90;99.90;;;;;;4982244;28;20522;-68
2021/03/30 03:31:11;;;;;;;4.25;2.13;;;7.90;99.90;;;;;;4985468;28;20798;-65
2021/03/30 03:33:38;;;;;;;3.10;2.20;;;7.90;99.90;;;;;;4980997;28;20448;-66
2021/03/30 03:36:11;;;;;;;6.32;2.30;;;7.90;99.90;;;;;;4983132;28;20140;-63
2021/03/30 03:38:43;;;;;;;4.22;2.20;;;7.90;99.90;;;;;;4979629;28;20515;-65
2021/03/30 03:41:13;;;;;;;3.30;2.03;;;8.00;99.90;;;;;;4978568;28;20081;-64
2021/03/30 03:43:40;;;;;;;;;;;8.00;99.90;;;;;;4982788;28;20046;-63
2021/03/30 03:46:07;;;;;;;6.28;2.67;;;8.00;99.90;;;;;;4982570;28;19944;-63
2021/03/30 03:48:35;;;;;;;5.38;2.25;;;8.00;99.90;;;;;;4982750;28;20135;-67
2021/03/30 03:51:05;;;;;;;2.63;1.83;;;8.00;99.90;;;;;;4983856;28;20473;-65
2021/03/30 03:53:35;;;;;;;6.97;2.70;;;8.00;99.90;;;;;;4980399;28;20115;-63
2021/03/30 03:56:02;;;;;;;2.13;1.88;;;8.00;99.90;;;;;;4985848;28;20046;-65
2021/03/30 03:58:34;;;;;;;3.35;1.85;;;8.10;99.90;;;;;;4981661;28;20042;-65
2021/03/30 04:01:03;;;;;;;5.53;2.28;;;8.10;99.90;;;;;;4983847;28;20050;-66
2021/03/30 04:03:39;;;;;;;3.55;2.67;;;8.20;99.90;;;;;;4981049;28;20124;-65
2021/03/30 04:06:13;;;;;;;3.70;2.17;;;8.20;99.90;;;;;;4977633;28;20049;-65
2021/03/30 04:08:51;;;;;;;2.22;1.60;;;8.20;99.90;;;;;;4979257;28;20065;-64
2021/03/30 04:11:19;;;;;;;4.47;2.40;;;8.30;99.90;;;;;;4982342;28;20105;-64
2021/03/30 04:13:47;;;;;;;5.07;2.58;;;8.20;99.90;;;;;;4980417;28;20050;-64
2021/03/30 04:16:14;;;;;;;5.80;2.70;;;8.20;99.90;;;;;;4978047;28;20046;-64
2021/03/30 04:18:42;;;;;;;4.00;2.58;;;8.20;99.90;;;;;;4983013;28;20047;-64
2021/03/30 04:21:17;;;;;;;5.53;3.08;;;8.20;99.90;;;;;;4982617;28;20066;-63
2021/03/30 04:23:46;;;;;;;5.35;3.42;;;8.20;99.90;;;;;;4983000;28;20050;-65
2021/03/30 04:26:12;;;;;;;4.20;3.25;;;8.20;99.90;;;;;;4980361;28;20070;-62
2021/03/30 04:28:42;;;;;;;4.40;3.95;;;8.20;99.90;;;;;;4981541;28;20100;-63
2021/03/30 04:31:08;;;;;;;12.10;4.38;;;8.20;99.90;;;;;;4984915;28;20565;-64
2021/03/30 04:33:35;;;;;;;5.60;3.60;;;8.20;99.90;;;;;;4980551;28;20140;-65
2021/03/30 04:36:02;;;;;;;6.00;3.00;;;8.30;99.90;;;;;;4979007;28;20108;-65
2021/03/30 04:38:28;;;;;;;4.85;3.42;;;8.30;99.90;;;;;;4982032;28;20061;-64
2021/03/30 04:40:55;;;;;;;7.78;3.97;;;8.20;99.90;;;;;;4980457;28;20124;-66
2021/03/30 04:43:22;;;;;;;5.10;3.45;;;8.20;99.90;;;;;;4981114;28;20081;-64
2021/03/30 04:46:08;;;;;;;4.90;3.75;;;8.20;99.90;;;;;;4978733;28;20185;-64
2021/03/30 04:48:36;;;;;;;5.68;3.40;;;8.10;99.90;;;;;;4980645;28;20053;-69
2021/03/30 04:51:03;;;;;;;8.00;4.03;;;8.10;99.90;;;;;;4981573;28;20109;-66
2021/03/30 04:53:30;;;;;;;10.05;3.83;;;8.00;99.90;;;;;;4983288;28;20065;-70
2021/03/30 04:55:56;;;;;;;4.60;3.83;;;8.00;99.90;;;;;;4980150;28;20038;-67
2021/03/30 04:58:23;;;;;;;5.72;3.30;;;8.00;99.90;;;;;;4980865;28;20436;-66
2021/03/30 05:00:50;;;;;;;7.30;4.38;;;8.00;99.90;;;;;;4980846;28;20124;-63
2021/03/30 05:03:16;;;;;;;8.27;4.05;;;8.00;99.90;;;;;;4975006;28;20488;-67
2021/03/30 05:05:43;;;;;;;4.18;2.97;;;8.00;99.90;;;;;;4979061;28;20058;-66
2021/03/30 05:08:09;;;;;;;6.57;3.25;;;8.00;99.90;;;;;;4974277;28;20393;-64
2021/03/30 05:10:35;;;;;;;6.15;4.45;;;8.00;99.90;;;;;;4989504;28;20046;-64
2021/03/30 05:13:02;;;;;;;6.03;3.17;;;8.00;99.90;;;;;;4981228;28;20440;-69
2021/03/30 05:15:28;;;;;;;4.57;3.40;;;7.90;99.90;;;;;;4978896;28;20492;-69
2021/03/30 05:17:55;;;;;;;7.97;4.35;;;7.90;99.90;;;;;;4978927;28;20058;-73
2021/03/30 05:20:21;;;;;;;4.80;3.13;;;7.90;99.90;;;;;;4979520;28;20057;-69
2021/03/30 05:22:48;;;;;;;5.70;4.20;;;7.90;99.90;;;;;;4980737;28;20392;-70
2021/03/30 05:25:14;;;;;;;4.75;3.67;;;8.00;99.90;;;;;;4981464;28;20061;-66
2021/03/30 05:27:41;;;;;;;11.20;3.72;;;7.90;99.90;;;;;;4980448;28;20108;-70
2021/03/30 05:30:10;;;;;;;6.32;3.25;;;8.00;99.90;;;;;;4979511;28;20153;-66
2021/03/30 05:32:37;;;;;;;5.28;3.80;;;7.90;99.90;;;;;;4993935;28;20059;-69
2021/03/30 05:35:10;;;;;;;7.90;3.45;;;7.90;99.90;;;;;;4981078;28;20081;-65
2021/03/30 05:37:43;;;;;;;6.65;4.20;;;7.90;99.90;;;;;;4979101;28;20058;-66
2021/03/30 05:40:15;;;;;;;7.00;3.00;;;7.90;99.90;;;;;;4978947;28;20054;-63
2021/03/30 05:42:42;;;;;;;10.80;3.75;;;7.90;99.90;;;;;;4979738;28;20058;-64
2021/03/30 05:45:11;;;;;;;9.90;3.47;;;7.90;99.90;;;;;;4979685;28;20046;-66
2021/03/30 05:47:37;;;;;;;6.05;3.47;;;7.80;99.90;;;;;;4980360;28;20169;-63
2021/03/30 05:50:13;;;;;;;10.82;4.10;;;7.80;99.90;;;;;;4978176;28;20100;-65
2021/03/30 05:53:04;;;;;;;4.70;2.90;;;7.90;99.90;;;;;;4979311;28;20128;-63
2021/03/30 05:55:32;;;;;;;9.07;4.72;;;7.90;99.90;;;;;;4977439;28;20054;-71
2021/03/30 05:58:00;;;;;;;4.10;2.90;;;8.00;99.90;;;;;;4978427;28;20065;-69
2021/03/30 06:00:28;;;;;;;3.13;2.40;;;8.10;99.90;;;;;;4972297;28;20050;-66
2021/03/30 06:02:58;;;;;;;8.82;3.22;;;8.20;99.90;;;;;;4977598;28;20057;-70
2021/03/30 06:05:25;;;;;;;5.93;3.33;;;8.30;99.90;;;;;;4978431;28;20061;-66
2021/03/30 06:07:57;;;;;;;11.75;3.88;;;8.40;99.90;;;;;;4978041;28;20518;-64
2021/03/30 06:10:26;;;;;;;9.18;4.13;;;8.50;99.90;;;;;;4975684;28;20123;-68
2021/03/30 06:12:57;;;;;;;4.10;2.45;;;8.70;99.90;;;;;;4978349;28;20404;-63
2021/03/30 06:15:34;;;;;;;6.97;2.55;;;8.90;99.90;;;;;;4977425;28;20053;-66
2021/03/30 06:18:20;;;;;;;7.47;3.53;;;9.00;99.90;;;;;;4976985;28;20058;-68
2021/03/30 06:20:48;;;;;;;3.97;2.45;;;9.10;99.90;;;;;;4976829;28;20554;-67
2021/03/30 06:23:26;;;;;;;2.80;2.20;;;9.20;99.90;;;;;;4978687;28;20128;-66
2021/03/30 06:25:55;;;;;;;2.38;2.08;;;9.30;99.90;;;;;;4978733;28;20046;-69
2021/03/30 06:28:29;;;;;;;2.80;2.00;;;9.40;99.90;;;;;;4976675;28;20137;-67
2021/03/30 06:31:06;;;;;;;5.72;1.67;;;9.50;99.90;;;;;;4979639;28;20420;-66
2021/03/30 06:33:35;;;;;;;2.25;1.50;;;9.60;99.90;;;;;;4978938;28;21422;-64
2021/03/30 06:36:18;;;;;;;3.67;1.70;;;9.80;99.90;;;;;;4979982;28;20129;-63
2021/03/30 06:38:48;;;;;;;;;;;9.90;99.90;;;;;;4978428;28;20112;-71
2021/03/30 06:44:28;;;;;;;3.17;1.80;;;10.10;99.90;;;;;;4977562;28;20046;-72
2021/03/30 06:46:56;;;;;;;2.97;1.20;;;10.20;99.90;;;;;;4977103;28;20061;-66
2021/03/30 06:49:24;;;;;;;3.20;1.45;;;10.30;99.90;;;;;;4977074;28;20081;-70
2021/03/30 06:51:51;;;;;;;1.92;1.20;;;10.40;99.90;;;;;;4976690;28;20066;-66
2021/03/30 06:54:18;;;;;;;1.92;1.05;;;10.40;99.90;;;;;;4977052;28;20143;-64
2021/03/30 06:56:48;;;;;;;1.90;1.02;;;10.40;99.90;;;;;;4976815;28;20070;-64
2021/03/30 06:59:15;;;;;;;3.58;1.05;;;10.50;99.90;;;;;;4977549;28;20051;-64
2021/03/30 07:01:44;;;;;;;2.42;1.00;;;10.70;99.90;;;;;;4978015;28;20057;-64
2021/03/30 07:04:12;;;;;;;3.47;1.10;;;10.80;99.90;;;;;;4977125;28;20065;-67
2021/03/30 07:06:40;;;;;;;4.28;1.40;;;10.80;99.90;;;;;;4976275;28;20054;-65
2021/03/30 07:09:10;;;;;;;4.05;1.40;;;10.90;99.90;;;;;;4979240;28;20136;-67
2021/03/30 07:11:39;;;;;;;1.48;0.98;;;10.90;99.90;;;;;;4982487;28;20039;-64
2021/03/30 07:14:06;;;;;;;2.67;1.73;;;11.00;99.90;;;;;;4979287;28;20116;-64
2021/03/30 07:16:38;;;;;;;2.55;1.00;;;11.10;99.90;;;;;;4984372;28;20460;-66
2021/03/30 07:19:06;;;;;;;1.27;0.88;;;11.10;99.90;;;;;;4982348;28;20475;-65
2021/03/30 07:21:41;;;;;;;2.78;2.20;;;11.10;99.90;;;;;;4984001;28;20065;-64
2021/03/30 07:24:10;;;;;;;1.10;0.93;;;11.20;99.90;;;;;;4980335;28;20042;-63
2021/03/30 07:26:42;;;;;;;1.37;0.90;;;11.20;99.90;;;;;;4982673;28;20066;-64
2021/03/30 07:29:17;;;;;;;1.55;1.25;;;11.30;99.90;;;;;;4981785;28;20368;-69
2021/03/30 07:32:10;;;;;;;1.23;0.80;;;11.40;99.90;;;;;;4981443;28;20049;-70
2021/03/30 07:35:01;;;;;;;1.25;0.55;;;11.40;99.90;;;;;;4978777;28;20093;-64
2021/03/30 07:37:51;;;;;;;0.95;0.85;;;11.50;99.90;;;;;;4981961;28;20057;-64
2021/03/30 07:40:19;;;;;;;2.65;0.88;;;11.60;99.90;;;;;;4981270;28;20117;-65
2021/03/30 07:42:47;;;;;;;1.52;0.60;;;11.60;99.90;;;;;;4979370;28;20046;-66
2021/03/30 07:45:18;;;;;;;1.55;0.80;;;11.60;99.90;;;;;;4983484;28;20061;-70
2021/03/30 07:47:46;;;;;;;3.22;1.13;;;11.60;99.90;;;;;;4982688;28;20054;-64
2021/03/30 07:50:16;;;;;;;1.15;1.05;;;11.60;99.90;;;;;;4982012;28;20055;-66
2021/03/30 07:52:48;;;;;;;2.70;1.00;;;11.60;99.90;;;;;;4980222;28;20051;-65
2021/03/30 07:55:19;;;;;;;1.77;1.23;;;11.60;99.90;;;;;;4981299;28;20259;-63
2021/03/30 07:57:54;;;;;;;4.25;1.25;;;11.60;99.90;;;;;;4981600;28;20055;-65
2021/03/30 08:00:32;;;;;;;3.33;1.02;;;11.60;99.90;;;;;;4979051;28;20047;-64
2021/03/30 08:03:08;;;;;;;0.82;0.82;;;11.60;99.90;;;;;;4981749;28;20112;-66
2021/03/30 08:05:35;;;;;;;3.65;1.25;;;11.70;99.90;;;;;;4983194;28;20370;-66
2021/03/30 08:08:21;;;;;;;1.15;0.50;;;11.70;99.90;;;;;;4979476;28;20109;-67
2021/03/30 08:10:49;;;;;;;1.52;0.95;;;11.80;99.90;;;;;;4981587;28;20065;-67
2021/03/30 08:13:52;;;;;;;1.95;0.70;;;11.90;99.90;;;;;;4976861;28;20058;-67
2021/03/30 08:16:20;;;;;;;3.50;0.68;;;12.00;99.90;;;;;;4979859;28;20050;-65
2021/03/30 08:18:48;;;;;;;1.05;0.80;;;12.10;99.90;;;;;;4978637;28;20065;-66
2021/03/30 08:21:17;;;;;;;1.25;0.80;;;12.10;99.90;;;;;;4983787;28;20050;-66
2021/03/30 08:23:52;;;;;;;2.47;0.90;;;12.10;99.90;;;;;;4975670;28;20058;-64
2021/03/30 08:26:24;;;;;;;2.13;0.70;;;12.20;99.90;;;;;;4981570;28;22207;-69
2021/03/30 08:29:07;;;;;;;3.42;0.88;;;12.20;99.90;;;;;;4980229;28;20129;-68
2021/03/30 08:31:39;;;;;;;7.00;1.00;;;12.20;99.90;;;;;;4978147;28;20105;-69
2021/03/30 08:34:09;;;;;;;2.70;0.82;;;12.30;99.90;;;;;;4976702;28;20082;-64
2021/03/30 08:36:50;;;;;;;2.58;0.85;;;12.30;99.90;;;;;;4980712;28;20481;-63
2021/03/30 08:39:20;;;;;;;2.40;0.98;;;12.30;99.90;;;;;;4978511;28;20046;-64
2021/03/30 08:41:46;;;;;;;0.90;0.80;;;12.30;99.90;;;;;;4979616;28;20588;-70
2021/03/30 08:44:23;;;;;;;1.90;0.60;;;12.40;99.90;;;;;;4977668;28;20046;-65
2021/03/30 08:46:52;;;;;;;1.52;0.60;;;12.40;99.90;;;;;;4974231;28;20042;-65
2021/03/30 08:49:26;;;;;;;5.68;0.80;;;12.50;99.90;;;;;;4977800;28;20042;-68
2021/03/30 08:52:14;;;;;;;2.40;0.50;;;12.50;99.90;;;;;;4977622;28;20077;-66
2021/03/30 08:54:48;;;;;;;1.70;1.00;;;12.50;99.90;;;;;;4980140;28;20065;-66
2021/03/30 08:57:36;;;;;;;2.60;0.93;;;12.50;99.90;;;;;;4979218;28;21496;-68
2021/03/30 09:00:13;;;;;;;2.70;0.80;;;12.40;99.90;;;;;;4977679;28;20050;-68
2021/03/30 09:02:42;;;;;;;2.35;0.90;;;12.50;99.90;;;;;;4981271;28;20046;-65
2021/03/30 09:05:17;;;;;;;2.92;0.50;;;12.50;99.90;;;;;;4977579;28;20096;-67
2021/03/30 09:07:45;;;;;;;14.93;1.27;;;12.50;99.90;;;;;;4980843;28;20061;-66
2021/03/30 09:10:12;;;;;;;12.40;1.10;;;12.50;99.90;;;;;;4976533;28;20058;-67
2021/03/30 09:12:39;;;;;;;2.15;1.38;;;12.50;99.90;;;;;;4979789;28;20500;-70
2021/03/30 09:15:08;;;;;;;2.15;0.90;;;12.50;99.90;;;;;;4979068;28;20054;-73
2021/03/30 09:17:51;;;;;;;6.50;1.25;;;12.60;99.90;;;;;;4979242;28;20073;-65
2021/03/30 09:20:18;;;;;;;3.30;1.08;;;12.50;99.90;;;;;;4978687;28;20120;-64
2021/03/30 09:22:52;;;;;;;4.40;1.63;;;12.60;99.90;;;;;;4982046;28;20050;-67
2021/03/30 09:27:45;;;;;;;9.07;1.38;;;12.50;99.90;;;;;;4980612;28;20065;-65
2021/03/30 09:30:21;;;;;;;1.95;0.85;;;12.60;99.90;;;;;;4974478;28;20080;-72
2021/03/30 09:32:49;;;;;;;2.95;0.90;;;12.60;99.90;;;;;;4979843;28;20385;-65
2021/03/30 09:35:20;;;;;;;6.45;1.15;;;12.50;99.90;;;;;;4974296;28;20042;-64
2021/03/30 09:37:58;;;;;;;3.25;0.85;;;12.50;99.90;;;;;;4980792;28;20381;-64
2021/03/30 09:40:41;;;;;;;3.60;0.88;;;12.80;99.90;;;;;;4976562;28;20047;-67
2021/03/30 09:43:11;;;;;;;3.60;1.45;;;12.80;99.90;;;;;;4980744;28;20129;-67
2021/03/30 09:45:39;;;;;;;2.80;1.38;;;12.90;99.90;;;;;;4979717;28;20508;-64
2021/03/30 09:48:08;;;;;;;4.05;1.25;;;12.90;99.90;;;;;;4980048;28;20054;-65
2021/03/30 09:50:47;;;;;;;6.18;1.98;;;12.80;99.90;;;;;;4981766;28;20061;-68
2021/03/30 09:53:13;;;;;;;2.95;1.80;;;12.70;99.90;;;;;;4980928;28;20081;-70
2021/03/30 09:55:41;;;;;;;2.60;1.63;;;12.60;99.90;;;;;;4977249;28;20057;-65
2021/03/30 09:58:13;;;;;;;1.30;0.93;;;12.60;99.90;;;;;;4980399;28;21041;-67
2021/03/30 10:00:45;;;;;;;6.35;1.50;;;12.70;99.90;;;;;;4980411;28;20116;-66
2021/03/30 10:03:13;;;;;;;2.63;1.00;;;12.90;99.90;;;;;;4980114;28;20053;-66
2021/03/30 10:05:41;;;;;;;6.05;2.00;;;12.90;99.90;;;;;;4979894;28;20108;-64
2021/03/30 10:08:26;;;;;;;10.52;1.02;;;13.00;99.90;;;;;;4978807;28;20058;-66
2021/03/30 10:10:55;;;;;;;9.43;5.10;;;13.10;99.90;;;;;;4979617;28;20046;-63
2021/03/30 10:13:35;;;;;;;1.92;1.38;;;13.20;99.90;;;;;;4979652;28;20077;-68
2021/03/30 10:16:08;;;;;;;3.45;1.50;;;13.10;99.90;;;;;;4978061;28;20051;-69
2021/03/30 10:18:36;;;;;;;6.40;1.88;;;13.00;99.90;;;;;;4978474;28;20046;-68
2021/03/30 10:21:12;;;;;;;4.35;1.80;;;12.90;99.90;;;;;;4977199;28;20068;-70
2021/03/30 10:23:52;;;;;;;4.15;1.40;;;12.90;99.90;;;;;;4980891;28;20085;-65
2021/03/30 10:26:26;;;;;;;8.20;1.60;;;12.80;99.90;;;;;;4976814;28;20047;-64
2021/03/30 10:28:55;;;;;;;4.88;1.45;;;12.70;99.90;;;;;;4979869;28;20593;-67
2021/03/30 10:31:31;;;;;;;12.18;2.95;;;12.70;99.90;;;;;;4978924;28;20050;-65
2021/03/30 10:33:57;;;;;;;3.22;1.63;;;12.80;99.90;;;;;;4979402;28;20105;-69
2021/03/30 10:36:25;;;;;;;12.77;1.63;;;12.90;99.90;;;;;;4977735;28;20047;-66
2021/03/30 10:39:09;;;;;;;6.20;1.77;;;12.90;99.90;;;;;;4980108;28;20050;-65
2021/03/30 10:41:40;;;;;;;7.18;1.85;;;13.00;99.90;;;;;;4978433;28;20038;-70
2021/03/30 10:44:08;;;;;;;9.85;2.13;;;13.00;99.90;;;;;;4982732;28;20488;-71
2021/03/30 10:46:48;;;;;;;4.15;2.00;;;13.10;99.90;;;;;;4982332;28;20493;-67
2021/03/30 10:49:15;;;;;;;4.15;1.63;;;13.30;99.90;;;;;;4984048;28;21803;-66
2021/03/30 10:51:44;;;;;;;4.47;1.45;;;13.40;99.90;;;;;;4984308;28;20108;-65
2021/03/30 10:54:13;;;;;;;10.32;1.58;;;13.50;99.90;;;;;;4981515;28;20046;-67
2021/03/30 10:56:41;;;;;;;9.68;2.00;;;13.60;99.90;;;;;;4979886;28;20066;-65
2021/03/30 10:59:12;;;;;;;4.43;1.25;;;13.60;99.90;;;;;;4983228;28;20160;-67
2021/03/30 11:01:39;;;;;;;5.53;1.90;;;13.50;99.90;;;;;;4984381;28;20392;-65
2021/03/30 11:04:07;;;;;;;3.22;1.63;;;13.60;99.90;;;;;;4981936;28;20097;-65
2021/03/30 11:06:33;;;;;;;1.98;1.33;;;13.60;99.90;;;;;;4982460;28;20109;-64
2021/03/30 11:09:00;;;;;;;4.55;2.70;;;13.60;99.90;;;;;;4982556;28;20078;-66
2021/03/30 11:11:27;;;;;;;4.53;1.50;;;13.50;99.90;;;;;;4980124;28;20051;-65
2021/03/30 11:13:53;;;;;;;3.33;1.35;;;13.40;99.90;;;;;;4980209;28;20696;-68
2021/03/30 11:16:20;;;;;;;9.13;2.60;;;13.40;99.90;;;;;;4976968;28;20042;-66
2021/03/30 11:18:46;;;;;;;4.15;1.80;;;13.40;99.90;;;;;;4983366;28;20046;-65
2021/03/30 11:21:13;;;;;;;5.97;1.85;;;13.50;99.90;;;;;;4981217;28;20857;-65
2021/03/30 11:23:41;;;;;;;5.88;1.88;;;13.50;99.90;;;;;;4982303;28;20117;-64
2021/03/30 11:26:13;;;;;;;2.80;1.40;;;13.60;99.90;;;;;;4980855;28;20125;-66
2021/03/30 11:28:43;;;;;;;3.60;1.70;;;13.60;99.90;;;;;;4980455;28;20050;-66
2021/03/30 11:31:24;;;;;;;6.75;1.65;;;13.70;99.90;;;;;;4980318;28;20052;-64
2021/03/30 11:34:05;;;;;;;2.78;2.00;;;13.80;99.90;;;;;;4983992;28;20069;-68
2021/03/30 11:36:38;;;;;;;1.80;1.48;;;13.80;99.90;;;;;;4979765;28;20192;-72
2021/03/30 11:39:05;;;;;;;2.60;1.77;;;13.80;99.90;;;;;;4979528;28;20122;-67
2021/03/30 11:41:31;;;;;;;6.32;1.63;;;13.80;99.90;;;;;;4980287;28;20050;-70
2021/03/30 11:43:58;;;;;;;8.45;2.08;;;14.00;99.90;;;;;;4983729;28;20054;-69
2021/03/30 11:46:25;;;;;;;6.85;2.13;;;14.10;99.90;;;;;;4977756;28;20137;-67
2021/03/30 11:48:51;;;;;;;8.93;2.15;;;13.90;99.90;;;;;;4997532;28;20062;-69
2021/03/30 11:51:18;;;;;;;6.40;1.67;;;13.90;99.90;;;;;;4980041;28;20072;-68
2021/03/30 11:53:44;;;;;;;6.75;2.03;;;14.00;99.90;;;;;;4982249;28;20065;-68
2021/03/30 11:56:12;;;;;;;4.97;1.58;;;14.20;99.90;;;;;;4981521;28;20495;-66
2021/03/30 11:58:38;;;;;;;4.03;1.60;;;14.30;99.90;;;;;;4984048;28;20054;-64
2021/03/30 12:01:08;;;;;;;3.90;2.03;;;14.40;99.90;;;;;;4980795;28;20074;-66
2021/03/30 12:03:38;;;;;;;9.98;2.17;;;14.30;99.90;;;;;;4983911;28;20074;-65
2021/03/30 12:06:08;;;;;;;7.22;2.35;;;14.40;99.90;;;;;;4977942;28;20062;-63
2021/03/30 12:08:34;;;;;;;7.00;4.30;;;14.40;99.90;;;;;;4981189;28;20057;-67
2021/03/30 12:11:01;;;;;;;8.90;2.95;;;14.60;99.90;;;;;;4981852;28;20078;-64
2021/03/30 12:13:28;;;;;;;6.55;2.20;;;14.70;99.90;;;;;;4986168;28;20058;-65
2021/03/30 12:15:54;;;;;;;4.22;1.45;;;14.90;99.90;;;;;;4979786;28;20132;-65
2021/03/30 12:18:21;;;;;;;3.00;1.75;;;14.90;99.90;;;;;;4981044;28;20065;-68
2021/03/30 12:20:47;;;;;;;4.15;1.58;;;14.90;99.90;;;;;;4979420;28;21000;-66
2021/03/30 12:23:14;;;;;;;6.90;2.15;;;14.80;99.90;;;;;;4979110;28;20054;-68
2021/03/30 12:25:40;;;;;;;6.88;2.00;;;14.90;99.90;;;;;;4977136;28;20062;-66
2021/03/30 12:28:07;;;;;;;5.00;1.88;;;14.90;99.90;;;;;;4978698;28;20058;-68
2021/03/30 12:30:33;;;;;;;7.57;1.92;;;15.00;99.90;;;;;;4977369;28;20062;-63
2021/03/30 12:33:00;;;;;;;5.65;2.80;;;15.00;99.90;;;;;;4980338;28;20045;-69
2021/03/30 12:35:26;;;;;;;5.38;2.47;;;15.00;99.90;;;;;;4977377;28;20050;-67
2021/03/30 12:37:53;;;;;;;8.95;2.28;;;15.00;99.90;;;;;;4975780;28;20066;-66
2021/03/30 12:40:20;;;;;;;9.95;2.45;;;15.00;99.90;;;;;;4976751;28;20051;-71
2021/03/30 12:42:48;;;;;;;8.60;2.42;;;15.00;99.90;;;;;;4979028;28;20132;-67
2021/03/30 12:45:14;;;;;;;6.85;1.73;;;15.10;99.90;;;;;;4978315;28;20050;-68
2021/03/30 12:47:40;;;;;;;3.38;2.35;;;15.10;99.90;;;;;;4980659;28;20073;-65
2021/03/30 12:50:08;;;;;;;6.30;3.13;;;15.10;99.90;;;;;;4978457;28;20054;-65
2021/03/30 12:52:34;;;;;;;8.23;1.95;;;15.10;99.90;;;;;;4978259;28;20046;-68
2021/03/30 12:55:08;;;;;;;6.72;2.53;;;14.90;99.90;;;;;;4977712;28;20065;-66
2021/03/30 12:57:35;;;;;;;3.60;1.85;;;14.90;99.90;;;;;;4993975;28;20100;-67
2021/03/30 13:00:03;;;;;;;7.35;1.92;;;15.00;99.90;;;;;;4977547;28;20125;-65
2021/03/30 13:02:30;;;;;;;8.02;3.63;;;15.00;99.90;;;;;;4978852;28;20069;-65
2021/03/30 13:04:56;;;;;;;5.90;1.83;;;15.00;99.90;;;;;;4981514;28;20058;-70
2021/03/30 13:07:23;;;;;;;10.00;3.97;;;14.90;99.90;;;;;;4978441;28;20042;-64
2021/03/30 13:09:49;;;;;;;5.43;2.20;;;14.90;99.90;;;;;;4979755;28;20073;-66
2021/03/30 13:12:16;;;;;;;2.38;2.20;;;15.00;99.90;;;;;;4976293;28;20050;-66
2021/03/30 13:14:47;;;;;;;5.88;2.47;;;15.10;99.90;;;;;;4980560;28;20054;-65
2021/03/30 13:17:14;;;;;;;5.70;2.65;;;15.20;99.90;;;;;;4980057;28;20041;-65